VTBDVTPH

Guest
Details From VTBD - Bangkok Don Mueang Intl
To VTPH - Hua Hin
Flight Number -
Tags Generated
Created
Modified
Stats Distance 84 nm / 156 km
Max Altitude 0 ft / 0 m
Waypoints 2
Social Downloads 2
Likes 0
Share VATSIM

Download

Looking for another format? Having issues loading an existing format? Contact us
Advertisement - Login to hide

Notes

Generated

Route

VTBD VTPH

ID Type Via Altitude Latitude Longitude Leg Dist Tot Dist Heading (true) Name
O VTBD APT - 0 ft / 0 m 13.89960˚ 100.60162˚ - 0 nm - -
O VTPH APT - 0 ft / 0 m 12.64514˚ 99.94817˚ 84 nm 84 nm 207° / 207° -

Altitude Profile

Advertisement - Login to hide

VTBD

Details ICAO VTBD (DMK)
Name Bangkok Don Mueang Intl
Region Thailand
Timezone Asia/Bangkok (UTC+7.0)
Stats Elevation 9 ft / 3 m (AMSL)
Location 13.912597° 100.606799°
Runways 2
Magnetic Variation 0.579° W

METAR

VTBD 221230Z 12007KT 9999 FEW020 27/24 Q1008 NOSIG

Decode

TAF

TAF TAF VTBD 221100Z 2212/2318 08005KT 9999 FEW020 SCT100 TEMPO 2303/2310 VRB10KT 5000 TSRA FEW018CB SCT035 BECMG 2306/2308 16008KT

Decode

Departure Runways

ID Width Length Bearing (true) Bearing (mag) Surface Threshold Offset Overrun Length
03L 197 ft / 60 m 12,186 ft / 3,714 m 28.55° 29.13° Asphalt 0 ft / 0 m 492 ft / 150 m
03R 148 ft / 45 m 11,520 ft / 3,511 m 28.50° 29.08° Asphalt 0 ft / 0 m 348 ft / 106 m
21L 148 ft / 45 m 11,520 ft / 3,511 m 208.50° 209.08° Asphalt 1,145 ft / 349 m 180 ft / 55 m
21R 197 ft / 60 m 12,186 ft / 3,714 m 208.55° 209.13° Asphalt 0 ft / 0 m 492 ft / 150 m

VTPH

Details ICAO VTPH (HHQ)
Name Hua Hin
Region Thailand
Timezone Asia/Bangkok (UTC+7.0)
Stats Elevation 62 ft / 19 m (AMSL)
Location 12.636225° 99.951530°
Runways 1
Magnetic Variation 0.517° W

METAR

Not found

TAF

TAF VTPH 221100Z 2212/2312 14010KT 9999 SCT020 BECMG 2214/2216 24005KT BECMG 2301/2303 12010KT TEMPO 2307/2312 VRB10KT 5000 TSRA FEW018CB SCT035

Decode

Destination Runways

ID Width Length Bearing (true) Bearing (mag) Surface Threshold Offset Overrun Length
16 115 ft / 35 m 6,935 ft / 2,114 m 159.78° 160.30° Asphalt 0 ft / 0 m 197 ft / 60 m
34 115 ft / 35 m 6,935 ft / 2,114 m 339.78° 340.30° Asphalt 492 ft / 150 m 95 ft / 29 m

Popular Alternatives